Time,TemperatureF,DewpointF,PressureIn,WindDirection,WindDirectionDegrees,WindSpeedMPH,WindSpeedGustMPH,Humidity,HourlyPrecipIn,Conditions,Clouds,dailyrainin,SoftwareType,DateUTC
2013-02-14 00:00:00,13.0,-10.0,-100.00,NNW,330,18.0,25.0,33,-99.99,,,-99.99,,2013-02-14 05:00:00,
2013-02-14 00:42:00,13.0,-10.0,-100.00,NNW,330,18.0,25.0,33,-99.99,,,-99.99,,2013-02-14 05:42:00,
2013-02-14 00:52:00,13.0,-10.0,-100.00,NNW,330,18.0,25.0,33,-99.99,,,-99.99,,2013-02-14 05:52:00,
2013-02-14 01:00:00,13.0,-15.0,-100.00,NNW,334,19.0,27.0,26,-99.99,,,-99.99,,2013-02-14 06:00:00,
2013-02-14 01:42:00,13.0,-15.0,-100.00,NNW,334,19.0,27.0,26,-99.99,,,-99.99,,2013-02-14 06:42:00,
2013-02-14 01:52:00,13.0,-15.0,-100.00,NNW,334,19.0,27.0,26,-99.99,,,-99.99,,2013-02-14 06:52:00,
2013-02-14 02:00:00,12.0,-15.0,-100.00,NW,319,18.0,25.0,28,-99.99,,,-99.99,,2013-02-14 07:00:00,
2013-02-14 02:42:00,12.0,-15.0,-100.00,NW,319,18.0,25.0,28,-99.99,,,-99.99,,2013-02-14 07:42:00,
2013-02-14 02:52:00,12.0,-15.0,-100.00,NW,319,18.0,25.0,28,-99.99,,,-99.99,,2013-02-14 07:52:00,
2013-02-14 03:00:00,11.0,-12.0,-100.00,NW,318,21.0,25.0,35,-99.99,,,-99.99,,2013-02-14 08:00:00,
2013-02-14 03:43:00,11.0,-12.0,-100.00,NW,318,21.0,25.0,35,-99.99,,,-99.99,,2013-02-14 08:43:00,
2013-02-14 03:52:00,11.0,-12.0,-100.00,NW,318,21.0,25.0,35,-99.99,,,-99.99,,2013-02-14 08:52:00,
2013-02-14 04:00:00,10.0,-15.0,-100.00,NW,325,17.0,24.0,30,-99.99,,,-99.99,,2013-02-14 09:00:00,
2013-02-14 04:42:00,10.0,-15.0,-100.00,NW,325,17.0,24.0,30,-99.99,,,-99.99,,2013-02-14 09:42:00,
2013-02-14 04:52:00,10.0,-15.0,-100.00,NW,325,17.0,24.0,30,-99.99,,,-99.99,,2013-02-14 09:52:00,
2013-02-14 05:00:00,12.0,-19.0,-100.00,NW,317,22.0,34.0,22,-99.99,,,-99.99,,2013-02-14 10:00:00,
2013-02-14 05:42:00,12.0,-19.0,-100.00,NW,317,22.0,34.0,22,-99.99,,,-99.99,,2013-02-14 10:42:00,
2013-02-14 05:52:00,12.0,-19.0,-100.00,NW,317,22.0,34.0,22,-99.99,,,-99.99,,2013-02-14 10:52:00,
2013-02-14 06:00:00,11.0,-14.0,-100.00,NW,313,23.0,34.0,31,-99.99,,,-99.99,,2013-02-14 11:00:00,
2013-02-14 06:42:00,11.0,-14.0,-100.00,NW,313,23.0,34.0,31,-99.99,,,-99.99,,2013-02-14 11:42:00,
2013-02-14 06:52:00,11.0,-14.0,-100.00,NW,313,23.0,34.0,31,-99.99,,,-99.99,,2013-02-14 11:52:00,
2013-02-14 07:00:00,9.0,-8.0,-100.00,NW,309,24.0,38.0,44,-99.99,,,-99.99,,2013-02-14 12:00:00,
2013-02-14 07:42:00,9.0,-8.0,-100.00,NW,309,24.0,38.0,44,-99.99,,,-99.99,,2013-02-14 12:42:00,
2013-02-14 07:53:00,9.0,-8.0,-100.00,NW,309,24.0,38.0,44,-99.99,,,-99.99,,2013-02-14 12:53:00,
2013-02-14 08:00:00,9.0,-9.0,-100.00,NW,318,24.0,35.0,44,-99.99,,,-99.99,,2013-02-14 13:00:00,
2013-02-14 08:42:00,9.0,-9.0,-100.00,NW,318,24.0,35.0,44,-99.99,,,-99.99,,2013-02-14 13:42:00,
2013-02-14 08:51:00,9.0,-9.0,-100.00,NW,318,24.0,35.0,44,-99.99,,,-99.99,,2013-02-14 13:51:00,
2013-02-14 09:00:00,7.0,-6.0,-100.00,NW,321,25.0,36.0,55,-99.99,,,-99.99,,2013-02-14 14:00:00,
2013-02-14 09:42:00,7.0,-6.0,-100.00,NW,321,25.0,36.0,55,-99.99,,,-99.99,,2013-02-14 14:42:00,
2013-02-14 09:52:00,7.0,-6.0,-100.00,NW,321,25.0,36.0,55,-99.99,,,-99.99,,2013-02-14 14:52:00,
2013-02-14 10:00:00,6.0,-3.0,-100.00,NW,318,26.0,37.0,67,-99.99,,,-99.99,,2013-02-14 15:00:00,
2013-02-14 10:42:00,6.0,-3.0,-100.00,NW,318,26.0,37.0,67,-99.99,,,-99.99,,2013-02-14 15:42:00,
2013-02-14 10:52:00,6.0,-3.0,-100.00,NW,318,26.0,37.0,67,-99.99,,,-99.99,,2013-02-14 15:52:00,
2013-02-14 11:00:00,5.0,1.0,-100.00,NW,316,23.0,36.0,83,-99.99,,,-99.99,,2013-02-14 16:00:00,
2013-02-14 11:42:00,5.0,1.0,-100.00,NW,316,23.0,36.0,83,-99.99,,,-99.99,,2013-02-14 16:42:00,
2013-02-14 11:52:00,5.0,1.0,-100.00,NW,316,23.0,36.0,83,-99.99,,,-99.99,,2013-02-14 16:52:00,
2013-02-14 12:00:00,5.0,3.0,-100.00,NNW,331,21.0,31.0,88,-99.99,,,-99.99,,2013-02-14 17:00:00,
2013-02-14 12:42:00,5.0,3.0,-100.00,NNW,331,21.0,31.0,88,-99.99,,,-99.99,,2013-02-14 17:42:00,
2013-02-14 12:52:00,5.0,3.0,-100.00,NNW,331,21.0,31.0,88,-99.99,,,-99.99,,2013-02-14 17:52:00,
2013-02-14 13:00:00,6.0,1.0,-100.00,North,353,17.0,36.0,81,-99.99,,,-99.99,,2013-02-14 18:00:00,
2013-02-14 13:42:00,6.0,1.0,-100.00,North,353,17.0,36.0,81,-99.99,,,-99.99,,2013-02-14 18:42:00,
2013-02-14 13:52:00,6.0,1.0,-100.00,North,353,17.0,36.0,81,-99.99,,,-99.99,,2013-02-14 18:52:00,
2013-02-14 14:00:00,6.0,1.0,-100.00,NNW,346,22.0,37.0,78,-99.99,,,-99.99,,2013-02-14 19:00:00,
2013-02-14 14:42:00,6.0,1.0,-100.00,NNW,346,22.0,37.0,78,-99.99,,,-99.99,,2013-02-14 19:42:00,
2013-02-14 14:52:00,6.0,1.0,-100.00,NNW,346,22.0,37.0,78,-99.99,,,-99.99,,2013-02-14 19:52:00,
2013-02-14 15:00:00,6.0,1.0,-100.00,NNW,348,23.0,37.0,79,-99.99,,,-99.99,,2013-02-14 20:00:00,
2013-02-14 15:42:00,6.0,1.0,-100.00,NNW,348,23.0,37.0,79,-99.99,,,-99.99,,2013-02-14 20:42:00,
2013-02-14 15:52:00,6.0,1.0,-100.00,NNW,348,23.0,37.0,79,-99.99,,,-99.99,,2013-02-14 20:52:00,
2013-02-14 16:00:00,6.0,1.0,-100.00,NNW,347,18.0,33.0,78,-99.99,,,-99.99,,2013-02-14 21:00:00,
2013-02-14 16:42:00,6.0,1.0,-100.00,NNW,347,18.0,33.0,78,-99.99,,,-99.99,,2013-02-14 21:42:00,
2013-02-14 16:52:00,6.0,1.0,-100.00,NNW,347,18.0,33.0,78,-99.99,,,-99.99,,2013-02-14 21:52:00,
2013-02-14 17:00:00,7.0,0.0,-100.00,NNW,327,12.0,26.0,74,-99.99,,,-99.99,,2013-02-14 22:00:00,
2013-02-14 17:42:00,7.0,0.0,-100.00,NNW,327,12.0,26.0,74,-99.99,,,-99.99,,2013-02-14 22:42:00,
2013-02-14 17:52:00,7.0,0.0,-100.00,NNW,327,12.0,26.0,74,-99.99,,,-99.99,,2013-02-14 22:52:00,
2013-02-14 18:00:00,8.0,-3.0,-100.00,NNW,327,12.0,25.0,60,-99.99,,,-99.99,,2013-02-14 23:00:00,
2013-02-14 18:42:00,8.0,-3.0,-100.00,NNW,327,12.0,25.0,60,-99.99,,,-99.99,,2013-02-14 23:42:00,
2013-02-14 18:52:00,8.0,-3.0,-100.00,NNW,327,12.0,25.0,60,-99.99,,,-99.99,,2013-02-14 23:52:00,
2013-02-14 19:00:00,7.0,0.0,-100.00,NNW,328,16.0,25.0,71,-99.99,,,-99.99,,2013-02-15 00:00:00,
2013-02-14 19:42:00,7.0,0.0,-100.00,NNW,328,16.0,25.0,71,-99.99,,,-99.99,,2013-02-15 00:42:00,
2013-02-14 19:52:00,7.0,0.0,-100.00,NNW,328,16.0,25.0,71,-99.99,,,-99.99,,2013-02-15 00:52:00,
2013-02-14 20:00:00,5.0,-1.0,-100.00,NW,326,17.0,25.0,73,-99.99,,,-99.99,,2013-02-15 01:00:00,
2013-02-14 20:42:00,5.0,-1.0,-100.00,NW,326,17.0,25.0,73,-99.99,,,-99.99,,2013-02-15 01:42:00,
2013-02-14 20:52:00,5.0,-1.0,-100.00,NW,326,17.0,25.0,73,-99.99,,,-99.99,,2013-02-15 01:52:00,
2013-02-14 21:00:00,4.0,0.0,-100.00,NW,326,21.0,27.0,86,-99.99,,,-99.99,,2013-02-15 02:00:00,
2013-02-14 21:42:00,4.0,0.0,-100.00,NW,326,21.0,27.0,86,-99.99,,,-99.99,,2013-02-15 02:42:00,
2013-02-14 21:52:00,4.0,0.0,-100.00,NW,326,21.0,27.0,86,-99.99,,,-99.99,,2013-02-15 02:52:00,
2013-02-14 22:00:00,3.0,0.0,-100.00,NW,324,19.0,25.0,87,-99.99,,,-99.99,,2013-02-15 03:00:00,
2013-02-14 22:42:00,3.0,0.0,-100.00,NW,324,19.0,25.0,87,-99.99,,,-99.99,,2013-02-15 03:42:00,
2013-02-14 22:52:00,3.0,0.0,-100.00,NW,324,19.0,25.0,87,-99.99,,,-99.99,,2013-02-15 03:52:00,
2013-02-14 23:00:00,4.0,-9.0,-100.00,NNW,333,19.0,29.0,54,-99.99,,,-99.99,,2013-02-15 04:00:00,
2013-02-14 23:42:00,4.0,-9.0,-100.00,NNW,333,19.0,29.0,54,-99.99,,,-99.99,,2013-02-15 04:42:00,
2013-02-14 23:52:00,4.0,-9.0,-100.00,NNW,333,19.0,29.0,54,-99.99,,,-99.99,,2013-02-15 04:52:00,